Time;durP1;ratioP1;P1;durP2;ratioP2;P2;SDS_P1;SDS_P2;PMS_P1;PMS_P2;Temp;Humidity;BMP_temperature;BMP_pressure;BME280_temperature;BME280_humidity;BME280_pressure;Samples;Min_cycle;Max_cycle;Signal;HPM_P1;HPM_P2
2022/10/22 00:02:22;;;;;;;31.93;17.80;;;9.90;96.30;;;9.94;63.08;95801.09;5084985;28;20453;-53
2022/10/22 00:04:50;;;;;;;29.13;17.27;;;9.90;96.60;;;9.92;62.87;95797.75;5086147;28;20478;-54
2022/10/22 00:07:17;;;;;;;28.50;17.17;;;9.90;96.60;;;9.91;63.09;95797.84;5086084;28;20534;-54
2022/10/22 00:09:45;;;;;;;38.10;19.20;;;9.80;96.60;;;9.89;62.83;95789.25;5086235;28;20473;-54
2022/10/22 00:12:12;;;;;;;31.30;19.30;;;9.80;96.40;;;9.88;63.02;95793.66;5086382;28;20458;-55
2022/10/22 00:14:39;;;;;;;28.40;17.53;;;9.80;96.70;;;9.87;63.29;95794.63;5085847;28;20466;-54
2022/10/22 00:17:07;;;;;;;24.97;16.23;;;9.80;96.70;;;9.87;63.36;95799.88;5086133;28;20450;-56
2022/10/22 00:19:35;;;;;;;22.70;15.23;;;9.80;96.70;;;9.85;63.28;95799.13;5085129;28;20519;-54
2022/10/22 00:22:04;;;;;;;27.10;16.33;;;9.80;96.80;;;9.85;63.20;95799.13;5085527;28;20453;-55
2022/10/22 00:24:31;;;;;;;29.73;16.30;;;9.80;96.90;;;9.84;63.48;95794.84;5086100;28;20478;-54
2022/10/22 00:26:59;;;;;;;28.30;17.90;;;9.70;97.00;;;9.83;62.94;95780.84;5086258;28;20868;-56
2022/10/22 00:29:26;;;;;;;37.33;17.53;;;9.70;96.90;;;9.81;63.05;95780.13;5086039;28;20550;-54
2022/10/22 00:31:53;;;;;;;24.53;15.20;;;9.70;96.90;;;9.79;63.45;95775.94;5085830;28;21057;-55
2022/10/22 00:34:21;;;;;;;24.93;16.60;;;9.70;96.90;;;9.75;63.87;95785.84;5084748;28;20469;-54
2022/10/22 00:36:50;;;;;;;26.30;16.23;;;9.70;97.40;;;9.75;63.19;95782.38;5078577;28;20964;-57
2022/10/22 00:39:18;;;;;;;21.67;14.53;;;9.70;97.00;;;9.75;63.59;95779.75;5080466;28;20496;-56
2022/10/22 00:41:46;;;;;;;26.33;15.77;;;9.60;97.10;;;9.74;63.40;95783.31;5085974;28;20485;-54
2022/10/22 00:45:03;;;;;;;23.90;14.63;;;9.70;97.00;;;9.74;64.30;95799.09;5085569;28;20466;-54
2022/10/22 00:47:32;;;;;;;25.63;15.50;;;9.70;97.40;;;9.72;63.77;95785.22;5080852;28;21011;-56
2022/10/22 00:50:00;;;;;;;21.87;16.10;;;9.70;97.30;;;9.69;63.54;95791.53;5085728;28;20846;-55
2022/10/22 00:52:28;;;;;;;25.03;14.60;;;9.60;97.40;;;9.67;63.43;95789.03;5083230;28;20477;-55
2022/10/22 00:54:56;;;;;;;26.80;16.10;;;9.60;97.20;;;9.67;63.61;95773.25;5082083;28;20466;-53
2022/10/22 00:57:23;;;;;;;28.57;16.37;;;9.60;97.30;;;9.66;63.51;95770.75;5086663;28;20458;-54
2022/10/22 00:59:50;;;;;;;19.47;15.23;;;9.60;97.30;;;9.59;63.47;95773.00;5085074;28;20478;-55
2022/10/22 01:02:17;;;;;;;20.53;15.70;;;9.60;97.40;;;9.57;63.56;95774.03;5085679;28;20616;-54
2022/10/22 01:04:45;;;;;;;24.10;15.70;;;9.50;97.20;;;9.55;64.13;95776.78;5085756;28;20473;-56
2022/10/22 01:07:15;;;;;;;30.67;16.40;;;9.50;97.40;;;9.52;63.75;95759.44;5085134;28;20503;-54
2022/10/22 01:09:48;;;;;;;25.33;15.30;;;9.50;97.40;;;9.52;64.25;95754.19;5085404;28;20484;-54
2022/10/22 01:12:20;;;;;;;26.53;16.47;;;9.40;97.50;;;9.52;64.48;95758.63;5084066;28;20481;-53
2022/10/22 01:14:59;;;;;;;22.90;15.90;;;9.40;97.70;;;9.48;64.38;95759.78;5082757;28;20473;-53
2022/10/22 01:17:31;;;;;;;24.73;15.07;;;9.40;97.70;;;9.46;64.10;95746.75;5077988;28;20450;-56
2022/10/22 01:20:06;;;;;;;26.13;16.93;;;9.40;97.70;;;9.47;64.22;95747.63;5084090;28;20477;-54
2022/10/22 01:22:36;;;;;;;26.47;15.53;;;9.40;97.90;;;9.45;64.00;95739.84;5085398;28;20456;-55
2022/10/22 01:25:09;;;;;;;24.20;15.97;;;9.40;97.80;;;9.46;64.36;95743.31;5085715;28;20486;-55
2022/10/22 01:27:45;;;;;;;24.87;15.87;;;9.40;97.90;;;9.46;64.71;95732.81;5085230;28;20545;-54
2022/10/22 01:30:14;;;;;;;23.10;16.97;;;9.40;98.10;;;9.45;64.29;95731.97;5078897;28;20469;-55
2022/10/22 01:32:45;;;;;;;26.53;16.37;;;9.40;97.80;;;9.45;64.26;95729.34;5082792;28;20446;-53
2022/10/22 01:35:15;;;;;;;26.47;16.03;;;9.40;98.00;;;9.46;64.42;95731.00;5078175;28;21013;-55
2022/10/22 01:37:47;;;;;;;26.20;16.07;;;9.40;97.90;;;9.46;64.73;95731.00;5085418;28;20457;-54
2022/10/22 01:40:15;;;;;;;23.70;15.90;;;9.40;98.00;;;9.46;64.58;95727.56;5078238;28;20462;-54
2022/10/22 01:42:42;;;;;;;26.20;17.23;;;9.40;97.90;;;9.45;64.45;95721.47;5085388;28;20457;-52
2022/10/22 01:45:12;;;;;;;27.07;17.27;;;9.40;97.90;;;9.45;64.58;95717.97;5085365;28;20892;-53
2022/10/22 01:47:50;;;;;;;23.80;16.13;;;9.40;98.00;;;9.46;64.40;95719.66;5085198;28;20500;-54
2022/10/22 01:50:45;;;;;;;24.60;14.90;;;9.40;98.00;;;9.46;64.61;95727.56;5078104;28;21048;-55
2022/10/22 01:53:24;;;;;;;22.97;16.40;;;9.40;98.10;;;9.45;64.70;95725.88;5078905;28;20535;-53
2022/10/22 01:56:08;;;;;;;24.50;14.97;;;9.40;98.30;;;9.44;64.95;95726.84;5082608;28;20438;-53
2022/10/22 01:58:41;;;;;;;21.47;14.10;;;9.40;98.30;;;9.44;64.51;95724.22;5080555;28;20972;-55
2022/10/22 02:01:14;;;;;;;22.67;15.33;;;9.40;98.00;;;9.43;64.29;95723.34;5085277;28;20442;-58
2022/10/22 02:03:47;;;;;;;24.43;16.97;;;9.40;98.10;;;9.42;64.66;95724.31;5085140;28;20485;-54
2022/10/22 02:06:17;;;;;;;25.97;17.13;;;9.40;98.00;;;9.41;64.93;95724.44;5078344;28;20443;-56
2022/10/22 02:08:44;;;;;;;23.27;16.43;;;9.40;98.20;;;9.38;64.83;95714.97;5085230;28;20470;-54
2022/10/22 02:11:12;;;;;;;29.17;16.37;;;9.30;98.20;;;9.38;65.17;95709.72;5085076;28;20481;-54
2022/10/22 02:13:41;;;;;;;26.17;14.57;;;9.30;98.40;;;9.36;64.45;95719.50;5080777;28;20971;-55
2022/10/22 02:16:10;;;;;;;24.37;16.00;;;9.30;98.10;;;9.35;64.73;95711.75;5084765;28;20453;-54
2022/10/22 02:18:39;;;;;;;23.80;15.77;;;9.30;98.30;;;9.30;64.09;95707.66;5078279;28;21045;-55
2022/10/22 02:21:07;;;;;;;23.80;15.37;;;9.30;98.00;;;9.26;64.75;95713.25;5084334;28;20446;-55
2022/10/22 02:23:35;;;;;;;24.10;15.47;;;9.20;98.20;;;9.22;64.91;95717.06;5084773;28;21017;-54
2022/10/22 02:26:06;;;;;;;23.27;16.00;;;9.20;98.30;;;9.21;64.85;95728.50;5085526;28;20442;-53
2022/10/22 02:28:37;;;;;;;32.07;16.90;;;9.20;98.40;;;9.18;65.19;95726.91;5080905;28;20799;-56
2022/10/22 02:31:08;;;;;;;24.37;16.70;;;9.20;98.40;;;9.19;64.93;95733.03;5088515;28;20585;-56
2022/10/22 02:33:37;;;;;;;24.27;15.10;;;9.10;98.40;;;9.19;64.86;95735.66;5080667;28;20465;-55
2022/10/22 02:36:05;;;;;;;22.33;15.87;;;9.10;98.50;;;9.18;65.37;95729.53;5088195;28;20941;-53
2022/10/22 02:38:34;;;;;;;22.97;14.67;;;9.10;98.60;;;9.18;64.91;95733.97;5088059;28;20470;-52
2022/10/22 02:41:01;;;;;;;27.40;16.67;;;9.10;98.60;;;9.17;65.44;95742.78;5083219;28;21024;-53
2022/10/22 02:43:29;;;;;;;24.80;16.37;;;9.10;99.00;;;9.16;65.12;95731.44;5088176;28;20519;-54
2022/10/22 02:45:56;;;;;;;23.63;16.83;;;9.10;98.60;;;9.14;64.94;95733.34;5088198;28;20895;-53
2022/10/22 02:48:24;;;;;;;29.63;16.27;;;9.10;98.60;;;9.14;65.11;95738.59;5087704;28;20477;-57
2022/10/22 02:50:51;;;;;;;31.70;18.00;;;9.10;98.60;;;9.13;65.07;95739.53;5086411;28;20450;-56
2022/10/22 02:53:18;;;;;;;27.20;17.97;;;9.10;98.60;;;9.12;65.41;95737.84;5087162;28;20500;-55
2022/10/22 02:55:47;;;;;;;27.70;17.37;;;9.10;98.90;;;9.11;65.04;95731.78;5084173;28;20450;-52
2022/10/22 02:58:14;;;;;;;29.63;18.97;;;9.00;98.50;;;9.09;64.74;95730.19;5081228;28;20442;-59
2022/10/22 03:00:41;;;;;;;30.47;18.60;;;9.00;98.40;;;9.06;65.37;95735.66;5088387;28;20571;-53
2022/10/22 03:03:08;;;;;;;35.13;19.20;;;9.00;98.50;;;9.04;65.10;95742.81;5087874;28;20512;-53
2022/10/22 03:05:36;;;;;;;36.50;17.87;;;9.00;98.50;;;9.02;64.96;95734.22;5087605;28;20450;-56
2022/10/22 03:08:03;;;;;;;47.97;17.97;;;9.00;98.40;;;9.01;64.49;95730.75;5087467;28;20654;-56
2022/10/22 03:10:30;;;;;;;29.63;17.33;;;9.00;98.30;;;9.00;64.77;95729.09;5086137;28;20458;-54
2022/10/22 03:12:59;;;;;;;31.17;16.80;;;9.00;98.50;;;8.99;65.02;95734.44;5085690;28;20513;-56
2022/10/22 03:15:26;;;;;;;26.03;16.80;;;9.00;98.50;;;8.96;64.88;95723.19;5086016;28;20449;-53
2022/10/22 03:17:53;;;;;;;26.43;16.97;;;8.90;98.50;;;8.95;65.26;95721.53;5084816;28;20454;-54
2022/10/22 03:20:20;;;;;;;29.33;17.50;;;8.90;98.60;;;8.95;64.95;95721.53;5086963;28;20477;-57
2022/10/22 03:22:48;;;;;;;24.97;17.03;;;8.90;98.60;;;8.94;65.24;95713.78;5087757;28;20534;-54
2022/10/22 03:25:19;;;;;;;29.63;17.00;;;8.90;98.60;;;8.94;65.49;95729.53;5087190;28;20842;-56
2022/10/22 03:27:46;;;;;;;34.43;19.03;;;8.90;98.70;;;8.92;65.42;95729.63;5087773;28;20472;-55
2022/10/22 03:30:15;;;;;;;32.20;18.13;;;8.90;98.80;;;8.91;65.34;95721.88;5087025;28;20482;-56
2022/10/22 03:32:42;;;;;;;25.53;16.80;;;8.90;98.70;;;8.91;65.68;95714.00;5085014;28;20489;-57
2022/10/22 03:35:10;;;;;;;23.97;16.07;;;8.90;98.80;;;8.89;65.54;95723.75;5080131;28;20507;-54
2022/10/22 03:37:37;;;;;;;27.93;19.07;;;8.90;99.10;;;8.87;65.85;95715.97;5086704;28;20465;-55
2022/10/22 03:40:05;;;;;;;23.77;16.30;;;8.80;99.10;;;8.84;66.23;95710.94;5086305;28;20930;-54
2022/10/22 03:42:32;;;;;;;25.00;17.00;;;8.80;99.30;;;8.79;65.58;95718.31;5086845;28;20453;-53
2022/10/22 03:44:59;;;;;;;26.90;16.53;;;8.80;99.10;;;8.76;65.93;95718.53;5086799;28;20482;-56
2022/10/22 03:47:28;;;;;;;38.37;17.47;;;8.70;99.10;;;8.75;65.51;95720.31;5086891;28;21151;-53
2022/10/22 03:49:55;;;;;;;27.50;17.43;;;8.70;99.10;;;8.77;66.01;95712.34;5086170;28;20481;-54
2022/10/22 03:52:22;;;;;;;23.60;16.30;;;8.70;99.40;;;8.75;65.58;95722.94;5080943;28;21109;-56
2022/10/22 03:54:49;;;;;;;31.40;16.17;;;8.70;99.10;;;8.74;65.93;95715.19;5085334;28;20470;-54
2022/10/22 03:57:17;;;;;;;26.03;17.50;;;8.70;99.10;;;8.74;65.91;95712.56;5086660;28;20454;-55
2022/10/22 03:59:45;;;;;;;27.60;17.47;;;8.70;99.20;;;8.75;65.83;95708.97;5086356;28;20470;-54
2022/10/22 04:02:13;;;;;;;27.40;17.40;;;8.70;99.30;;;8.74;65.69;95704.69;5086011;28;20915;-53
2022/10/22 04:04:42;;;;;;;24.20;16.60;;;8.70;99.30;;;8.72;65.85;95707.41;5086496;28;20485;-53
2022/10/22 04:07:09;;;;;;;23.20;15.63;;;8.70;99.30;;;8.71;65.68;95720.66;5086405;28;20959;-56
2022/10/22 04:09:37;;;;;;;26.17;17.23;;;8.70;99.10;;;8.73;66.07;95730.06;5086548;28;20470;-57
2022/10/22 04:12:06;;;;;;;32.13;16.90;;;8.70;99.30;;;8.75;66.08;95717.69;5085964;28;20490;-54
2022/10/22 04:14:34;;;;;;;27.57;18.13;;;8.70;99.60;;;8.78;66.04;95707.00;5080712;28;20489;-54
2022/10/22 04:17:01;;;;;;;33.17;17.67;;;8.70;99.50;;;8.81;65.96;95705.09;5086102;28;20962;-54
2022/10/22 04:19:28;;;;;;;30.90;17.30;;;8.70;99.30;;;8.82;65.71;95701.53;5085133;28;20473;-54
2022/10/22 04:21:59;;;;;;;27.23;16.17;;;8.80;99.50;;;8.84;65.69;95712.75;5084321;28;20450;-53
2022/10/22 04:24:26;;;;;;;27.77;16.83;;;8.80;99.40;;;8.85;65.76;95707.38;5075378;28;20466;-56
2022/10/22 04:26:54;;;;;;;30.17;18.60;;;8.80;99.40;;;8.87;65.55;95704.66;5080216;28;20967;-55
2022/10/22 04:29:21;;;;;;;26.53;16.20;;;8.80;99.40;;;8.91;65.55;95714.00;5084845;28;20527;-54
2022/10/22 04:31:48;;;;;;;25.73;16.20;;;8.80;99.20;;;8.93;66.01;95709.47;5081254;28;20493;-56
2022/10/22 04:34:16;;;;;;;26.33;15.90;;;8.90;99.30;;;8.96;65.71;95715.31;5084780;28;20470;-54
2022/10/22 04:36:43;;;;;;;27.10;17.10;;;8.90;99.40;;;9.01;65.75;95715.00;5082297;28;20978;-53
2022/10/22 04:39:11;;;;;;;31.40;17.00;;;8.90;99.40;;;9.04;65.60;95706.91;5081285;28;20471;-54
2022/10/22 04:41:39;;;;;;;24.03;15.97;;;9.00;99.50;;;9.07;65.88;95709.31;5084500;28;20540;-54
2022/10/22 04:44:07;;;;;;;31.33;17.50;;;9.00;99.60;;;9.12;65.41;95714.22;5086057;28;20997;-56
2022/10/22 04:46:35;;;;;;;25.30;16.67;;;9.10;99.40;;;9.12;65.76;95703.75;5085940;28;20450;-54
2022/10/22 04:49:03;;;;;;;38.90;17.63;;;9.10;99.30;;;9.14;65.45;95721.06;5084412;28;20477;-54
2022/10/22 04:51:30;;;;;;;25.17;17.10;;;9.10;99.20;;;9.20;65.56;95718.94;5084503;28;20469;-54
2022/10/22 04:53:58;;;;;;;33.50;18.37;;;9.10;99.30;;;9.21;65.45;95718.81;5085245;28;20481;-57
2022/10/22 04:56:27;;;;;;;28.50;17.63;;;9.20;99.40;;;9.26;65.51;95721.13;5082599;28;20446;-54
2022/10/22 04:58:56;;;;;;;45.40;18.90;;;9.20;99.50;;;9.29;65.53;95719.09;5085373;28;20466;-58
2022/10/22 05:01:25;;;;;;;32.70;18.90;;;9.20;99.30;;;9.31;65.50;95714.59;5078522;28;20450;-54
2022/10/22 05:03:53;;;;;;;39.63;21.90;;;9.20;99.20;;;9.36;65.27;95729.16;5083900;28;20533;-54
2022/10/22 05:06:21;;;;;;;43.13;21.90;;;9.30;99.10;;;9.38;65.17;95745.66;5085495;28;20458;-57
2022/10/22 05:08:51;;;;;;;45.67;22.30;;;9.30;99.00;;;9.40;65.15;95754.25;5085071;28;20554;-56
2022/10/22 05:11:20;;;;;;;46.50;24.70;;;9.30;98.90;;;9.41;64.65;95750.69;5085446;28;20448;-53
2022/10/22 05:13:48;;;;;;;35.30;21.23;;;9.30;98.80;;;9.38;64.91;95746.47;5078712;28;20582;-56
2022/10/22 05:16:16;;;;;;;47.80;21.30;;;9.30;98.80;;;9.41;64.68;95746.25;5080777;28;20457;-56
2022/10/22 05:18:44;;;;;;;47.33;21.80;;;9.30;98.70;;;9.40;64.62;95739.31;5068450;28;20463;-56
2022/10/22 05:21:12;;;;;;;38.47;20.40;;;9.30;98.50;;;9.38;64.33;95737.78;5070225;28;20531;-56
2022/10/22 05:23:39;;;;;;;47.97;22.30;;;9.30;98.50;;;9.38;64.58;95740.41;5073124;28;21001;-55
2022/10/22 05:26:07;;;;;;;38.70;19.77;;;9.30;98.50;;;9.36;64.43;95742.28;5071993;28;20443;-57
2022/10/22 05:28:35;;;;;;;39.33;20.10;;;9.30;98.50;;;9.34;64.42;95750.28;5070865;28;20945;-54
2022/10/22 05:31:03;;;;;;;34.60;19.80;;;9.30;98.50;;;9.32;64.66;95753.00;5061756;28;20517;-55
2022/10/22 05:33:32;;;;;;;39.53;19.63;;;9.30;98.50;;;9.36;64.73;95753.66;5068442;28;20516;-54
2022/10/22 05:36:00;;;;;;;46.77;20.30;;;9.30;98.50;;;9.35;64.59;95748.50;5046224;28;20462;-54
2022/10/22 05:38:27;;;;;;;44.10;19.73;;;9.30;98.40;;;9.36;64.24;95744.91;5033001;28;20846;-56
2022/10/22 05:41:00;;;;;;;40.97;20.00;;;9.30;98.40;;;9.35;64.76;95741.44;5028833;28;20436;-55
2022/10/22 05:43:28;;;;;;;29.40;19.63;;;9.30;98.50;;;9.37;64.37;95744.78;5025577;28;20539;-56
2022/10/22 05:45:55;;;;;;;35.60;17.93;;;9.30;98.50;;;9.40;64.47;95744.56;5028104;28;20498;-55
2022/10/22 05:48:23;;;;;;;31.10;18.97;;;9.30;98.50;;;9.46;64.72;95748.56;5027537;28;21034;-53
2022/10/22 05:50:51;;;;;;;36.60;20.30;;;9.40;98.60;;;9.54;64.09;95746.19;5028905;28;20897;-57
2022/10/22 05:53:18;;;;;;;34.60;20.40;;;9.40;98.50;;;9.64;63.98;95752.47;5040643;28;20512;-56
2022/10/22 05:55:45;;;;;;;34.40;21.83;;;9.50;98.40;;;9.72;64.05;95748.47;5038339;28;20475;-57
2022/10/22 05:58:13;;;;;;;55.33;28.50;;;9.60;98.30;;;9.75;64.24;95749.06;5031727;28;20451;-54
2022/10/22 06:00:41;;;;;;;48.17;31.20;;;9.60;98.30;;;9.82;64.08;95745.03;5032983;28;20478;-54
2022/10/22 06:03:08;;;;;;;69.83;34.17;;;9.70;98.30;;;9.89;64.06;95755.91;5039791;28;20440;-57
2022/10/22 06:05:37;;;;;;;68.03;37.13;;;9.80;98.30;;;10.07;64.07;95748.47;5045052;28;20964;-56
2022/10/22 06:08:05;;;;;;;58.63;38.83;;;9.90;98.50;;;10.46;63.38;95745.59;5047571;28;20444;-54
2022/10/22 06:10:32;;;;;;;60.03;36.70;;;10.20;97.90;;;10.96;62.76;95756.63;5046907;28;20464;-55
2022/10/22 06:13:00;;;;;;;61.43;35.50;;;10.60;97.40;;;11.51;61.76;95750.53;5041607;28;20511;-54
2022/10/22 06:15:27;;;;;;;62.87;37.50;;;11.10;97.10;;;12.06;60.62;95756.63;5044107;28;21437;-54
2022/10/22 06:17:55;;;;;;;52.70;30.20;;;11.70;96.50;;;12.61;59.59;95755.59;5043675;28;20454;-56
2022/10/22 06:20:22;;;;;;;45.03;34.17;;;12.20;95.50;;;13.14;58.54;95760.69;5045741;28;20526;-55
2022/10/22 06:22:51;;;;;;;60.40;33.83;;;12.70;94.80;;;13.66;57.19;95757.09;5046454;28;20455;-55
2022/10/22 06:25:18;;;;;;;67.40;32.10;;;13.20;94.10;;;14.15;56.48;95748.22;5043750;28;20475;-54
2022/10/22 06:27:50;;;;;;;56.77;28.10;;;13.70;93.20;;;14.68;55.68;95759.31;5041895;28;20455;-56
2022/10/22 06:30:17;;;;;;;47.00;27.47;;;14.20;92.40;;;15.14;54.55;95762.94;5044501;28;20872;-56
2022/10/22 06:32:45;;;;;;;60.10;28.67;;;14.70;91.60;;;15.64;53.90;95767.00;5042302;28;20565;-56
2022/10/22 06:35:14;;;;;;;48.40;28.67;;;15.10;91.00;;;16.12;52.70;95757.88;5045737;28;20472;-55
2022/10/22 06:37:42;;;;;;;55.20;29.60;;;15.60;89.90;;;16.57;52.40;95752.59;5042076;28;20531;-55
2022/10/22 06:40:12;;;;;;;44.80;28.23;;;16.10;89.00;;;16.99;51.41;95746.59;5029796;28;20483;-56
2022/10/22 06:42:39;;;;;;;48.67;27.93;;;16.50;86.70;;;17.40;51.21;95749.44;5036193;28;20465;-56
2022/10/22 06:45:09;;;;;;;56.83;26.20;;;16.90;85.20;;;17.82;50.05;95751.22;5039804;28;20848;-55
2022/10/22 06:47:36;;;;;;;39.50;23.93;;;17.30;83.40;;;18.24;49.43;95752.16;5040453;28;20460;-56
2022/10/22 06:50:04;;;;;;;48.40;24.67;;;17.70;82.40;;;18.70;49.13;95751.63;5042082;28;20476;-56
2022/10/22 06:52:31;;;;;;;36.33;22.23;;;18.20;81.10;;;19.21;48.77;95757.56;5042338;28;20897;-56
2022/10/22 06:54:59;;;;;;;30.97;20.90;;;18.60;79.60;;;19.71;48.44;95758.19;5034526;28;20473;-56
2022/10/22 06:57:27;;;;;;;28.80;20.73;;;19.20;79.00;;;20.26;46.75;95758.22;5033784;28;20715;-57
2022/10/22 06:59:55;;;;;;;29.33;19.60;;;19.70;76.00;;;20.75;45.61;95764.00;5041942;28;20472;-56
2022/10/22 07:02:22;;;;;;;27.70;19.37;;;20.20;73.20;;;21.25;44.75;95761.66;5037973;28;20455;-54
2022/10/22 07:04:50;;;;;;;27.97;18.67;;;20.80;71.00;;;21.70;43.86;95758.16;5041106;28;20488;-56
2022/10/22 07:07:17;;;;;;;32.30;20.23;;;21.30;68.10;;;22.13;43.57;95751.03;5034696;28;20479;-55
2022/10/22 07:09:46;;;;;;;30.30;19.90;;;21.70;67.80;;;22.55;42.07;95748.56;5037486;28;20471;-55
2022/10/22 07:12:13;;;;;;;34.57;21.97;;;22.20;63.90;;;22.88;41.42;95743.47;5037924;28;20661;-57
2022/10/22 07:14:42;;;;;;;25.80;18.50;;;22.60;62.50;;;23.14;41.02;95750.06;5036745;28;20670;-54
2022/10/22 07:17:09;;;;;;;30.80;20.67;;;23.00;60.80;;;23.50;40.47;95757.09;5038595;28;20441;-54
2022/10/22 07:19:36;;;;;;;32.17;21.90;;;23.40;60.40;;;23.87;39.89;95751.50;5037607;28;20979;-56
2022/10/22 07:22:04;;;;;;;36.67;21.07;;;23.70;58.70;;;24.20;39.28;95745.38;5038489;28;20473;-57
2022/10/22 07:24:31;;;;;;;30.40;19.80;;;24.10;57.80;;;24.50;38.51;95738.59;5036759;28;20524;-55
2022/10/22 07:26:58;;;;;;;31.23;19.30;;;24.50;57.00;;;24.78;37.52;95736.78;5040624;28;20459;-55
2022/10/22 07:29:26;;;;;;;30.17;19.33;;;24.80;55.10;;;25.05;37.99;95749.19;5039269;28;20566;-55
2022/10/22 07:31:54;;;;;;;32.73;20.80;;;25.10;54.90;;;25.35;37.27;95739.84;5033325;28;20452;-55
2022/10/22 07:34:21;;;;;;;26.77;19.10;;;25.40;54.00;;;25.62;36.53;95742.44;5022571;28;20607;-55
2022/10/22 07:36:49;;;;;;;28.37;19.57;;;25.70;53.10;;;25.83;35.48;95738.66;5033083;28;20512;-55
2022/10/22 07:39:16;;;;;;;29.37;20.07;;;25.90;51.80;;;25.89;35.53;95737.78;5030819;28;20830;-54
2022/10/22 07:41:43;;;;;;;31.30;18.30;;;26.00;51.10;;;25.88;35.42;95728.03;5040391;28;20522;-54
2022/10/22 07:44:11;;;;;;;27.97;19.53;;;26.00;50.70;;;25.90;35.17;95729.50;5036827;28;20472;-54
2022/10/22 07:46:38;;;;;;;30.90;19.83;;;25.90;50.40;;;25.94;35.06;95724.47;5036794;28;21049;-56
2022/10/22 07:49:07;;;;;;;28.87;18.50;;;25.90;49.80;;;25.93;34.36;95725.50;5039917;28;20476;-56
2022/10/22 07:51:34;;;;;;;31.13;20.50;;;25.80;49.30;;;25.70;33.81;95724.19;5031612;28;20514;-55
2022/10/22 07:54:01;;;;;;;27.03;19.30;;;25.60;48.10;;;25.40;34.36;95723.88;5037653;28;20549;-55
2022/10/22 07:56:29;;;;;;;28.43;17.53;;;25.20;48.80;;;25.18;34.59;95725.97;5039703;28;20479;-56
2022/10/22 07:58:56;;;;;;;37.10;20.47;;;24.90;49.10;;;25.10;35.02;95723.47;5040249;28;20473;-53
2022/10/22 08:01:23;;;;;;;21.33;16.80;;;24.70;49.80;;;25.18;35.00;95724.09;5043247;28;20518;-53
2022/10/22 08:03:50;;;;;;;25.40;16.80;;;24.70;50.00;;;25.33;35.14;95718.50;5037139;28;21018;-55
2022/10/22 08:06:19;;;;;;;22.90;17.07;;;24.90;50.10;;;25.59;34.30;95705.97;5040024;28;20506;-55
2022/10/22 08:08:46;;;;;;;28.33;16.87;;;25.10;49.90;;;25.85;34.05;95699.63;5038387;28;20475;-55
2022/10/22 08:11:13;;;;;;;21.50;17.53;;;25.30;49.40;;;26.03;33.82;95698.16;5039296;28;20455;-56
2022/10/22 08:13:41;;;;;;;27.70;19.90;;;25.50;48.60;;;26.10;33.48;95704.31;5039250;28;20499;-56
2022/10/22 08:16:08;;;;;;;30.80;19.33;;;25.60;48.00;;;26.21;33.38;95703.63;5038847;28;20462;-56
2022/10/22 08:18:37;;;;;;;36.73;18.77;;;25.70;48.10;;;26.35;33.64;95703.53;5039891;28;20467;-60
2022/10/22 08:21:05;;;;;;;28.50;19.13;;;25.80;48.20;;;26.54;33.70;95686.38;5038641;28;20581;-55
2022/10/22 08:23:34;;;;;;;29.53;16.90;;;26.00;48.30;;;26.78;33.00;95692.81;5038290;28;20605;-54
2022/10/22 08:26:01;;;;;;;20.73;16.67;;;26.20;47.60;;;26.94;32.81;95694.16;5037487;28;20542;-56
2022/10/22 08:28:30;;;;;;;20.80;16.07;;;26.40;47.30;;;27.15;32.74;95698.28;5033381;28;20475;-55
2022/10/22 08:30:57;;;;;;;26.43;16.93;;;26.60;47.00;;;27.35;31.69;95695.41;5039851;28;20455;-54
2022/10/22 08:33:24;;;;;;;31.47;17.70;;;26.80;45.90;;;27.39;31.25;95693.09;5042151;28;21031;-56
2022/10/22 08:35:52;;;;;;;22.50;16.77;;;26.90;45.50;;;27.39;31.43;95697.66;5042991;28;20467;-56
2022/10/22 08:38:19;;;;;;;24.13;16.20;;;26.80;45.30;;;27.47;31.59;95695.47;5036869;28;20466;-55
2022/10/22 08:40:50;;;;;;;22.30;16.40;;;26.90;45.80;;;27.63;31.62;95701.31;5041761;28;20447;-56
2022/10/22 08:43:41;;;;;;;19.00;13.57;;;27.00;45.70;;;27.84;31.28;95694.59;5042881;28;20447;-54
2022/10/22 08:46:30;;;;;;;29.93;13.33;;;27.20;45.50;;;28.04;30.62;95686.25;5042691;28;20534;-56
2022/10/22 08:48:59;;;;;;;18.60;15.00;;;27.50;45.00;;;28.19;31.24;95693.94;5044101;28;21061;-56
2022/10/22 08:51:29;;;;;;;16.70;13.07;;;27.60;45.10;;;28.29;31.28;95690.66;5041574;28;20470;-57
2022/10/22 08:54:25;;;;;;;22.03;13.50;;;27.70;44.80;;;28.43;30.49;95700.25;5040942;28;21083;-54
2022/10/22 08:57:03;;;;;;;21.37;13.30;;;27.80;44.20;;;28.54;30.54;95699.44;5037427;28;20463;-56
2022/10/22 08:59:35;;;;;;;19.63;11.93;;;28.00;44.20;;;28.71;30.09;95693.38;5038024;28;20481;-56
2022/10/22 09:02:02;;;;;;;21.60;13.10;;;28.10;43.90;;;28.86;30.30;95688.34;5042192;28;20444;-54
2022/10/22 09:04:31;;;;;;;17.37;12.10;;;28.30;43.10;;;28.90;30.44;95685.97;5044059;28;20849;-54
2022/10/22 09:06:59;;;;;;;16.73;13.50;;;28.30;43.20;;;28.95;29.57;95686.94;5040926;28;20452;-57
2022/10/22 09:09:29;;;;;;;17.80;13.00;;;28.40;43.00;;;29.05;29.79;95683.63;5042749;28;20472;-56
2022/10/22 09:11:58;;;;;;;17.93;13.23;;;28.50;42.80;;;29.14;29.84;95676.78;5041894;28;20463;-55
2022/10/22 09:14:25;;;;;;;22.17;16.53;;;28.50;42.60;;;29.18;29.09;95674.41;5044574;28;20522;-55
2022/10/22 09:17:14;;;;;;;27.37;14.27;;;28.60;41.90;;;29.14;29.76;95667.81;5042863;28;20823;-54
2022/10/22 09:19:49;;;;;;;24.87;16.10;;;28.60;42.30;;;29.06;28.59;95674.41;5037869;28;20479;-54
2022/10/22 09:22:25;;;;;;;21.27;15.00;;;28.60;41.70;;;28.93;29.12;95664.66;5043971;28;20473;-55
2022/10/22 09:24:55;;;;;;;35.60;15.97;;;28.40;42.00;;;28.91;29.61;95660.56;5040977;28;20516;-54
2022/10/22 09:27:28;;;;;;;26.77;17.37;;;28.40;42.30;;;28.84;28.60;95660.66;5035762;28;20443;-56
2022/10/22 09:29:55;;;;;;;31.43;18.00;;;28.30;41.20;;;28.51;28.76;95662.03;5042372;28;20471;-55
2022/10/22 09:32:22;;;;;;;23.33;17.73;;;28.10;41.40;;;28.08;29.50;95654.97;5044082;28;20459;-56
2022/10/22 09:34:50;;;;;;;29.50;17.10;;;27.70;41.80;;;27.84;30.36;95654.88;5041251;28;20855;-55
2022/10/22 09:37:19;;;;;;;41.07;15.90;;;27.50;42.40;;;27.86;30.63;95647.34;5045214;28;20443;-54
2022/10/22 09:39:48;;;;;;;25.37;16.50;;;27.30;42.80;;;28.04;30.01;95640.25;5040371;28;20464;-54
2022/10/22 09:42:16;;;;;;;37.00;18.33;;;27.50;43.20;;;28.25;30.20;95636.22;5046029;28;20564;-54
2022/10/22 09:44:46;;;;;;;22.50;15.87;;;27.60;42.80;;;28.39;30.12;95637.63;5044771;28;20471;-54
2022/10/22 09:47:29;;;;;;;27.80;17.80;;;27.80;42.60;;;28.51;29.87;95634.13;5044260;28;20874;-55
2022/10/22 09:50:07;;;;;;;25.43;18.00;;;27.90;42.50;;;28.62;29.52;95636.06;5043095;28;21051;-56
2022/10/22 09:52:34;;;;;;;28.87;18.70;;;28.00;42.20;;;28.63;29.17;95643.13;5038128;28;20455;-57
2022/10/22 09:55:02;;;;;;;25.00;16.87;;;28.10;41.50;;;28.58;29.93;95638.41;5045025;28;20502;-54
2022/10/22 09:57:30;;;;;;;30.67;16.43;;;28.00;41.90;;;28.61;29.89;95635.25;5042538;28;20452;-56
2022/10/22 09:59:59;;;;;;;36.17;18.27;;;28.00;41.90;;;28.68;28.66;95626.19;5046806;28;20467;-56
2022/10/22 10:02:29;;;;;;;33.63;18.00;;;28.10;41.40;;;28.59;29.03;95623.81;5043896;28;20451;-56
2022/10/22 10:04:57;;;;;;;22.80;16.87;;;28.00;41.40;;;28.29;29.68;95613.06;5044172;28;20479;-56
2022/10/22 10:07:25;;;;;;;29.63;17.17;;;27.90;41.50;;;27.78;29.46;95612.53;5045273;28;20489;-55
2022/10/22 10:09:53;;;;;;;26.80;18.40;;;27.50;41.40;;;27.37;30.00;95616.81;5043059;28;20479;-55
2022/10/22 10:12:29;;;;;;;27.23;16.33;;;27.20;41.80;;;27.17;30.30;95620.56;5042637;28;20558;-56
2022/10/22 10:15:07;;;;;;;29.10;16.43;;;26.90;42.70;;;27.16;30.83;95610.81;5043520;28;20486;-55
2022/10/22 10:17:40;;;;;;;35.00;18.40;;;26.70;43.10;;;27.14;30.37;95606.69;5039480;28;20868;-54
2022/10/22 10:20:22;;;;;;;28.83;16.53;;;26.70;43.00;;;27.21;30.44;95599.34;5043402;28;20478;-55
2022/10/22 10:22:55;;;;;;;28.27;18.50;;;26.60;43.00;;;27.27;30.41;95603.00;5044938;28;20541;-55